Crookhaven, Ireland
Current Conditions -  °F | °C
As of 7:00 PM on Monday 20 Oct 2014 (Local Time) from EIKY Reporting Station
Broken Clouds Broken Clouds  
Wind Chill: 57°   Ceiling: 2800
Heat Index: 57°   Visibility: 6mi
Dew Point: 52°   Wind: 23mph
Humidity: 82%   Direction: 250°WSW
Pressure: 29.71"   Gusts: NA
Location:  51.47°N, 9.73°W
Report Text: EIKY 201800Z 25020KT 9999 FEW023 BKN028 14/11 Q1006
Loading
Personal Weather Stations






























Interactive Weather Map
Tropical Storm Tracking
New forecast layout! Learn more

10-Day Weather Forecast

Advertisements
Track Severe Weather on mobile